Main page
Satellite images 15-day forecastsClimateMarine weather Cyclones Lightning AirportsFAQ Newsletter About
Weather : Europe Africa North America South America Asia Australia-Oceania Others
Languages Contact

Tehran, Iran

Mehrabad

latitude: 35-41N, longitude: 051-21E, elevation: 1204 m


METAR: OIII 312130Z 00000KT CAVOK 29/07 Q1012 A2988
short-TAF: out of date (1570 hours)
long-TAF: OIII 311700Z 3118/0124 12005MPS 7000 FEW035 TEMPO 3118/0103 12008MPS FEW030CB SCT040 BKN100

Time: 02:07 (21:37 UTC)

Current weather observation

The report was made 7 minutes ago, at 21:30 UTC  
Wind calm
Temperature 29°C
Humidity 25%
Pressure 1012 hPa
Visibility 10 km or more
no clouds below 1500 m and no cumulonimbus

Change units

Forecast

The report was made 4 hours and 28 minutes ago, at 17:09 UTC  
Forecast valid from 31 at 18 UTC to 01 at 24 UTC
Wind 10 kt from the East/Southeast
Visibility 7000 m
Few clouds at a height of 3500 ft
Temporary
from 31 at 18 UTC to 01 at 03 UTC
Wind 16 kt from the East/Southeast
Few clouds at a height of 3000 ft , Cumulonimbus.
Scattered clouds at a height of 4000 ft
Broken clouds at a height of 10000 ft
The information on this site is subject to a disclaimer
Weather : Europe Africa North America South America Asia Australia-Oceania Others
Satellite images 15-day forecastsClimateMarine weather Cyclones Lightning AirportsFAQ Languages Contact Newsletter About